Time;durP1;ratioP1;P1;durP2;ratioP2;P2;SDS_P1;SDS_P2;PMS_P1;PMS_P2;Temp;Humidity;BMP_temperature;BMP_pressure;BME280_temperature;BME280_humidity;BME280_pressure;Samples;Min_cycle;Max_cycle;Signal;HPM_P1;HPM_P2
2022/03/31 00:00:48;;;;;;;2.95;1.20;;;;;;;;;;5039541;28;20033;-60
2022/03/31 00:03:19;;;;;;;2.05;1.45;;;3.20;99.90;;;;;;5040591;28;20062;-60
2022/03/31 00:05:45;;;;;;;3.85;1.30;;;;;;;;;;5057946;28;20502;-61
2022/03/31 00:08:15;;;;;;;3.85;1.38;;;;;;;;;;5057196;28;20482;-61
2022/03/31 00:10:45;;;;;;;4.07;1.67;;;3.30;99.90;;;;;;5057213;28;20041;-60
2022/03/31 00:13:16;;;;;;;4.50;1.20;;;3.30;99.90;;;;;;5039456;28;20110;-60
2022/03/31 00:15:43;;;;;;;4.97;1.45;;;;;;;;;;5039254;28;20040;-60
2022/03/31 00:18:12;;;;;;;3.58;1.65;;;3.10;99.90;;;;;;5057196;28;20052;-61
2022/03/31 00:33:10;;;;;;;4.63;1.58;;;3.40;99.90;;;;;;5056960;28;20064;-60
2022/03/31 00:35:36;;;;;;;2.30;1.38;;;3.30;99.90;;;;;;5038892;28;20093;-60
2022/03/31 00:38:02;;;;;;;4.40;1.48;;;3.60;99.90;;;;;;5056713;28;20033;-60
2022/03/31 00:40:46;;;;;;;2.17;1.40;;;3.50;99.90;;;;;;5039064;28;20551;-60
2022/03/31 00:43:12;;;;;;;3.45;1.75;;;;;;;;;;5057605;28;20044;-60
2022/03/31 00:45:47;;;;;;;3.58;2.00;;;;;;;;;;5058058;28;20090;-60
2022/03/31 00:48:15;;;;;;;3.67;1.30;;;3.40;99.90;;;;;;5039795;28;20044;-60
2022/03/31 00:50:41;;;;;;;3.30;1.50;;;;;;;;;;5038478;28;20115;-60
2022/03/31 00:53:08;;;;;;;4.68;1.83;;;;;;;;;;5057036;28;20037;-61
2022/03/31 00:55:35;;;;;;;4.32;1.50;;;3.50;99.90;;;;;;5038977;28;20522;-61
2022/03/31 00:58:01;;;;;;;6.22;1.63;;;;;;;;;;5056982;28;20036;-60
2022/03/31 01:00:29;;;;;;;5.60;1.55;;;;;;;;;;5039729;28;20032;-61
2022/03/31 01:02:55;;;;;;;5.00;1.90;;;;;;;;;;5036126;28;20057;-61
2022/03/31 01:05:21;;;;;;;3.40;1.60;;;;;;;;;;5036419;28;20464;-61
2022/03/31 01:07:47;;;;;;;3.88;1.83;;;;;;;;;;5038172;28;20041;-61
2022/03/31 01:10:14;;;;;;;3.88;1.45;;;;;;;;;;5035216;28;20087;-61
2022/03/31 01:12:40;;;;;;;4.22;1.83;;;;;;;;;;5036361;28;20569;-61
2022/03/31 01:15:08;;;;;;;5.28;1.88;;;3.50;99.90;;;;;;5036237;28;20050;-61
2022/03/31 01:17:35;;;;;;;3.22;1.42;;;3.40;99.90;;;;;;5037566;28;20505;-61
2022/03/31 01:20:02;;;;;;;4.72;1.25;;;3.60;99.90;;;;;;5035889;28;20086;-61
2022/03/31 01:22:29;;;;;;;4.22;1.30;;;;;;;;;;5036790;28;20045;-61
2022/03/31 01:24:56;;;;;;;5.03;1.77;;;;;;;;;;5037356;28;20038;-60
2022/03/31 01:27:23;;;;;;;5.25;1.50;;;3.60;99.90;;;;;;5036213;28;20048;-61
2022/03/31 01:29:49;;;;;;;4.38;1.60;;;3.40;99.90;;;;;;5035862;28;20049;-61
2022/03/31 01:32:15;;;;;;;1.88;1.40;;;;;;;;;;5034940;28;20034;-60
2022/03/31 01:34:40;;;;;;;8.68;2.03;;;3.60;99.90;;;;;;5034620;28;20081;-60
2022/03/31 01:37:07;;;;;;;3.20;1.95;;;3.50;99.90;;;;;;5034623;28;20087;-60
2022/03/31 01:39:33;;;;;;;3.97;1.80;;;;;;;;;;5018594;28;20080;-61
2022/03/31 01:41:58;;;;;;;3.35;1.60;;;3.60;99.90;;;;;;5036277;28;20125;-61
2022/03/31 01:44:24;;;;;;;2.20;1.95;;;3.70;99.90;;;;;;5036593;28;20068;-61
2022/03/31 01:46:50;;;;;;;3.20;1.30;;;3.70;99.90;;;;;;5035677;28;20102;-61
2022/03/31 01:49:15;;;;;;;4.35;1.23;;;3.50;99.90;;;;;;5036210;28;20037;-61
2022/03/31 01:51:41;;;;;;;3.95;1.90;;;3.70;99.90;;;;;;5035083;28;20049;-61
2022/03/31 01:54:07;;;;;;;3.92;1.60;;;3.70;99.90;;;;;;5037000;28;20045;-61
2022/03/31 01:56:34;;;;;;;6.07;2.55;;;;;;;;;;5018172;28;20042;-61
2022/03/31 01:59:00;;;;;;;8.65;1.65;;;;;;;;;;5036227;28;20045;-60
2022/03/31 02:01:27;;;;;;;3.85;1.67;;;;;;;;;;5034710;28;20069;-61
2022/03/31 02:03:52;;;;;;;7.68;1.50;;;3.60;99.90;;;;;;5055731;28;20083;-60
2022/03/31 02:06:18;;;;;;;4.80;1.70;;;3.60;99.90;;;;;;5055902;28;20514;-60
2022/03/31 02:08:45;;;;;;;2.97;1.63;;;;;;;;;;5037881;28;20051;-60
2022/03/31 02:11:12;;;;;;;4.63;1.35;;;;;;;;;;5037744;28;20128;-60
2022/03/31 02:13:38;;;;;;;6.90;2.38;;;3.70;99.90;;;;;;5055810;28;20380;-60
2022/03/31 02:16:04;;;;;;;3.90;1.75;;;3.60;99.90;;;;;;5011473;28;20099;-60
2022/03/31 02:18:29;;;;;;;3.63;1.52;;;3.70;99.90;;;;;;5035821;28;20423;-60
2022/03/31 02:20:55;;;;;;;3.85;1.65;;;;;;;;;;5018195;28;20121;-60
2022/03/31 02:23:21;;;;;;;3.17;1.60;;;;;;;;;;5017815;28;20041;-60
2022/03/31 02:25:47;;;;;;;4.95;2.33;;;3.50;99.90;;;;;;5034982;28;20052;-60
2022/03/31 02:28:13;;;;;;;3.72;1.13;;;3.50;99.90;;;;;;5033978;28;20029;-60
2022/03/31 02:30:39;;;;;;;4.28;1.98;;;;;;;;;;5001435;28;20034;-60
2022/03/31 02:33:04;;;;;;;4.28;1.90;;;3.60;99.90;;;;;;5017977;28;20438;-60
2022/03/31 02:35:31;;;;;;;7.22;1.45;;;;;;;;;;5034052;28;20069;-60
2022/03/31 02:37:57;;;;;;;3.28;1.95;;;;;;;;;;5018495;28;20107;-60
2022/03/31 02:40:23;;;;;;;4.10;1.33;;;;;;;;;;5035894;28;20434;-60
2022/03/31 02:42:49;;;;;;;4.75;1.73;;;;;;;;;;5017960;28;20030;-60
2022/03/31 02:45:15;;;;;;;3.47;1.60;;;3.50;99.90;;;;;;5027556;28;20119;-60
2022/03/31 02:47:41;;;;;;;6.90;1.75;;;3.50;99.90;;;;;;5036205;28;20075;-60
2022/03/31 02:50:07;;;;;;;4.60;1.65;;;;;;;;;;5055357;28;20101;-59
2022/03/31 02:55:28;;;;;;;4.68;1.42;;;;;;;;;;5054958;28;20445;-60
2022/03/31 02:57:55;;;;;;;4.57;1.58;;;;;;;;;;5036918;28;20045;-60
2022/03/31 03:00:21;;;;;;;2.75;1.48;;;3.40;99.90;;;;;;5037275;28;20049;-60
2022/03/31 03:02:47;;;;;;;4.43;1.70;;;3.30;99.90;;;;;;5054913;28;20392;-60
2022/03/31 03:05:13;;;;;;;4.63;1.80;;;;;;;;;;5037415;28;20037;-59
2022/03/31 03:07:39;;;;;;;4.80;1.73;;;;;;;;;;5054755;28;20454;-60
2022/03/31 03:10:05;;;;;;;6.20;1.55;;;;;;;;;;5037354;28;20045;-60
2022/03/31 03:12:31;;;;;;;2.72;1.80;;;;;;;;;;5055628;28;20045;-60
2022/03/31 03:14:57;;;;;;;2.75;1.58;;;;;;;;;;5041597;28;20406;-59
2022/03/31 03:17:23;;;;;;;5.88;2.38;;;;;;;;;;5041462;28;20106;-60
2022/03/31 03:19:49;;;;;;;3.45;2.30;;;3.30;99.90;;;;;;5059552;28;20041;-60
2022/03/31 03:22:15;;;;;;;3.00;2.40;;;;;;;;;;5040435;28;20506;-60
2022/03/31 03:24:40;;;;;;;3.63;2.40;;;3.40;99.90;;;;;;5059179;28;20044;-60
2022/03/31 03:27:06;;;;;;;4.40;2.45;;;;;;;;;;5058529;28;20041;-60
2022/03/31 03:29:32;;;;;;;4.95;3.10;;;3.50;99.90;;;;;;5041431;28;20040;-60
2022/03/31 03:31:57;;;;;;;4.88;2.55;;;3.50;99.90;;;;;;5041085;28;20041;-60
2022/03/31 03:34:24;;;;;;;3.97;2.63;;;;;;;;;;5059014;28;20041;-60
2022/03/31 03:36:49;;;;;;;4.18;2.70;;;3.50;99.90;;;;;;5040913;28;20053;-60
2022/03/31 03:39:15;;;;;;;6.88;3.38;;;;;;;;;;5040883;28;20068;-60
2022/03/31 03:41:41;;;;;;;4.32;3.15;;;3.50;99.90;;;;;;5041500;28;20036;-60
2022/03/31 03:44:07;;;;;;;6.13;3.60;;;;;;;;;;5058196;28;20381;-60
2022/03/31 03:46:34;;;;;;;5.30;4.00;;;3.50;99.90;;;;;;5058427;28;20124;-60
2022/03/31 03:49:00;;;;;;;6.63;3.95;;;;;;;;;;5058518;28;20049;-60
2022/03/31 03:51:26;;;;;;;7.13;4.55;;;;;;;;;;5040527;28;20055;-60
2022/03/31 03:53:53;;;;;;;6.03;4.30;;;;;;;;;;5040617;28;20170;-60
2022/03/31 03:56:19;;;;;;;5.13;4.22;;;3.50;99.90;;;;;;5041001;28;20056;-60
2022/03/31 03:58:45;;;;;;;7.63;4.35;;;3.50;99.90;;;;;;5040367;28;20045;-60
2022/03/31 04:01:11;;;;;;;5.60;4.65;;;;;;;;;;5039825;28;20047;-60
2022/03/31 04:03:37;;;;;;;7.18;4.75;;;3.50;99.90;;;;;;5022717;28;20482;-59
2022/03/31 04:06:03;;;;;;;6.45;5.30;;;3.60;99.90;;;;;;5023164;28;20076;-60
2022/03/31 04:08:28;;;;;;;6.80;4.88;;;3.80;99.90;;;;;;5058140;28;20084;-59
2022/03/31 04:10:54;;;;;;;7.35;5.38;;;;;;;;;;5035496;28;20048;-59
2022/03/31 04:13:20;;;;;;;11.30;5.22;;;3.60;99.90;;;;;;5026209;28;20083;-60
2022/03/31 04:15:46;;;;;;;8.80;4.85;;;3.50;99.90;;;;;;5054497;28;20037;-61
2022/03/31 04:18:12;;;;;;;7.43;4.82;;;3.60;99.90;;;;;;5056968;28;20130;-60
2022/03/31 04:20:37;;;;;;;6.95;5.80;;;3.60;99.90;;;;;;5038972;28;20041;-60
2022/03/31 04:23:03;;;;;;;9.05;6.07;;;3.60;99.90;;;;;;5039139;28;20033;-60
2022/03/31 04:25:29;;;;;;;7.78;5.95;;;;;;;;;;5039020;28;20037;-60
2022/03/31 04:27:55;;;;;;;10.15;6.18;;;;;;;;;;5057146;28;20037;-61
2022/03/31 04:30:21;;;;;;;8.23;7.00;;;;;;;;;;5022607;28;20114;-61
2022/03/31 04:32:48;;;;;;;10.80;6.78;;;;;;;;;;5038833;28;20076;-60
2022/03/31 04:35:14;;;;;;;9.77;6.93;;;;;;;;;;5056659;28;20041;-60
2022/03/31 04:37:40;;;;;;;7.75;6.18;;;3.50;99.90;;;;;;5056580;28;20045;-60
2022/03/31 04:40:07;;;;;;;8.38;6.63;;;3.60;99.90;;;;;;5021344;28;20384;-60
2022/03/31 04:42:34;;;;;;;7.75;6.72;;;;;;;;;;5035284;28;20045;-61
2022/03/31 04:45:02;;;;;;;8.75;6.55;;;;;;;;;;5017575;28;20495;-61
2022/03/31 04:47:28;;;;;;;6.32;5.60;;;;;;;;;;5055784;28;20067;-61
2022/03/31 04:49:53;;;;;;;8.15;6.07;;;3.60;99.90;;;;;;5039497;28;20052;-61
2022/03/31 04:52:19;;;;;;;6.40;5.05;;;3.60;99.90;;;;;;5055748;28;20040;-61
2022/03/31 04:54:45;;;;;;;4.78;4.05;;;3.60;99.90;;;;;;5056988;28;20036;-61
2022/03/31 04:57:15;;;;;;;7.75;4.60;;;3.60;99.90;;;;;;5038680;28;20134;-61
2022/03/31 04:59:41;;;;;;;4.10;3.65;;;3.50;99.90;;;;;;5056378;28;20387;-61
2022/03/31 05:02:08;;;;;;;6.03;3.70;;;;;;;;;;5038011;28;20048;-60
2022/03/31 05:04:33;;;;;;;4.90;3.75;;;3.60;99.90;;;;;;5038721;28;20048;-60
2022/03/31 05:06:59;;;;;;;4.30;3.30;;;3.50;99.90;;;;;;5037549;28;20127;-60
2022/03/31 05:09:25;;;;;;;4.07;3.67;;;3.40;99.90;;;;;;5054104;28;20484;-60
2022/03/31 05:11:50;;;;;;;4.45;4.03;;;3.40;99.90;;;;;;5054333;28;20029;-60
2022/03/31 05:14:16;;;;;;;4.15;3.72;;;3.50;99.90;;;;;;5036309;28;20130;-60
2022/03/31 05:16:42;;;;;;;4.72;3.72;;;;;;;;;;5053311;28;20045;-60
2022/03/31 05:19:08;;;;;;;4.63;3.83;;;;;;;;;;5035967;28;20437;-60
2022/03/31 05:21:34;;;;;;;5.00;4.10;;;3.40;99.90;;;;;;5053568;28;20044;-61
2022/03/31 05:23:59;;;;;;;4.72;3.88;;;3.30;99.90;;;;;;5054391;28;20098;-61
2022/03/31 05:26:25;;;;;;;4.80;4.30;;;3.40;99.90;;;;;;5054621;28;20051;-61
2022/03/31 05:28:50;;;;;;;4.90;4.28;;;3.20;99.90;;;;;;5035942;28;20040;-61
2022/03/31 05:31:17;;;;;;;5.47;4.50;;;;;;;;;;5049014;28;20043;-61
2022/03/31 05:33:42;;;;;;;4.65;4.15;;;3.20;99.90;;;;;;5022531;28;20513;-61
2022/03/31 05:36:08;;;;;;;4.50;4.10;;;;;;;;;;5049343;28;20045;-59
2022/03/31 05:38:34;;;;;;;4.18;3.78;;;;;;;;;;5047576;28;20048;-60
2022/03/31 05:41:00;;;;;;;4.47;3.95;;;3.40;99.90;;;;;;5044088;28;20453;-60
2022/03/31 05:43:26;;;;;;;4.20;3.80;;;;;;;;;;5045955;28;20108;-61
2022/03/31 05:45:52;;;;;;;4.18;3.55;;;;;;;;;;5027110;28;20040;-60
2022/03/31 05:48:18;;;;;;;3.88;3.40;;;;;;;;;;5044443;28;20064;-60
2022/03/31 05:50:44;;;;;;;4.63;4.22;;;3.30;99.90;;;;;;5035339;28;20124;-60
2022/03/31 05:53:09;;;;;;;3.90;3.50;;;3.10;99.90;;;;;;5047682;28;20051;-60
2022/03/31 05:55:36;;;;;;;4.32;3.92;;;3.30;99.90;;;;;;5052339;28;20033;-59
2022/03/31 05:58:02;;;;;;;4.00;3.67;;;3.20;99.90;;;;;;5029785;28;20406;-59
2022/03/31 06:00:28;;;;;;;4.22;3.90;;;3.30;99.90;;;;;;5027674;28;20040;-59
2022/03/31 06:02:55;;;;;;;4.07;3.67;;;;;;;;;;5048319;28;20057;-60
2022/03/31 06:05:21;;;;;;;4.03;3.60;;;3.20;99.90;;;;;;5048281;28;20482;-60
2022/03/31 06:07:47;;;;;;;4.20;3.80;;;;;;;;;;5027608;28;20041;-59
2022/03/31 06:10:13;;;;;;;4.22;3.83;;;3.30;99.90;;;;;;5042347;28;20047;-58
2022/03/31 06:12:39;;;;;;;5.18;4.00;;;;;;;;;;5042388;28;20141;-59
2022/03/31 06:15:06;;;;;;;4.60;4.20;;;;;;;;;;5045325;28;20505;-59
2022/03/31 06:17:32;;;;;;;4.25;3.85;;;;;;;;;;5044873;28;20515;-60
2022/03/31 06:19:58;;;;;;;4.95;4.25;;;;;;;;;;5043904;28;20041;-60
2022/03/31 06:22:24;;;;;;;3.83;3.33;;;;;;;;;;5021660;28;20465;-60
2022/03/31 06:24:50;;;;;;;4.47;3.92;;;;;;;;;;5025932;28;20136;-60
2022/03/31 06:27:16;;;;;;;4.25;3.85;;;;;;;;;;5042470;28;20107;-60
2022/03/31 06:29:46;;;;;;;3.78;3.38;;;;;;;;;;5038508;28;20067;-59
2022/03/31 06:32:15;;;;;;;3.63;3.30;;;;;;;;;;5039411;28;20076;-60
2022/03/31 06:34:41;;;;;;;4.32;3.92;;;;;;;;;;5045505;28;20559;-60
2022/03/31 06:37:07;;;;;;;3.97;3.60;;;;;;;;;;5045065;28;20421;-60
2022/03/31 06:39:34;;;;;;;4.68;3.80;;;;;;;;;;5044288;28;20040;-60
2022/03/31 06:42:00;;;;;;;4.07;3.67;;;;;;;;;;5027523;28;20051;-60
2022/03/31 06:44:26;;;;;;;3.80;3.40;;;;;;;;;;5043502;28;20512;-60
2022/03/31 06:46:52;;;;;;;4.07;3.78;;;3.60;99.90;;;;;;5028180;28;20722;-60
2022/03/31 06:49:18;;;;;;;4.00;3.60;;;;;;;;;;5029688;28;20036;-60
2022/03/31 06:51:46;;;;;;;3.85;3.47;;;;;;;;;;5049384;28;20552;-60
2022/03/31 06:54:12;;;;;;;4.00;3.60;;;;;;;;;;5048046;28;20045;-60
2022/03/31 06:56:38;;;;;;;3.85;3.50;;;;;;;;;;5031763;28;20053;-60
2022/03/31 06:59:04;;;;;;;4.07;3.78;;;;;;;;;;5046650;28;20098;-60
2022/03/31 07:01:30;;;;;;;4.07;3.67;;;;;;;;;;5046785;28;20423;-60
2022/03/31 07:03:56;;;;;;;4.15;3.60;;;;;;;;;;5046908;28;21085;-60
2022/03/31 07:06:23;;;;;;;4.57;3.92;;;;;;;;;;5046718;28;20052;-60
2022/03/31 07:08:49;;;;;;;4.35;3.95;;;;;;;;;;5045544;28;20094;-60
2022/03/31 07:11:16;;;;;;;4.50;4.10;;;;;;;;;;5047107;28;20051;-60
2022/03/31 07:13:43;;;;;;;4.53;4.13;;;;;;;;;;5049552;28;20048;-60
2022/03/31 07:16:09;;;;;;;5.18;4.38;;;;;;;;;;5028875;28;20059;-60
2022/03/31 07:18:35;;;;;;;4.00;3.60;;;;;;;;;;5032642;28;20044;-60
2022/03/31 07:21:02;;;;;;;4.80;4.30;;;;;;;;;;5029421;28;20040;-60
2022/03/31 07:23:28;;;;;;;5.05;4.55;;;;;;;;;;5050454;28;20048;-60
2022/03/31 07:25:55;;;;;;;5.38;4.78;;;;;;;;;;5048398;28;20069;-60
2022/03/31 07:28:21;;;;;;;5.43;4.57;;;;;;;;;;5051968;28;20075;-60
2022/03/31 07:30:47;;;;;;;5.57;4.97;;;;;;;;;;5030291;28;20075;-60
2022/03/31 07:33:14;;;;;;;5.10;4.60;;;;;;;;;;5048877;28;20072;-60
2022/03/31 07:35:41;;;;;;;8.85;5.35;;;;;;;;;;5048280;28;20041;-60
2022/03/31 07:38:08;;;;;;;6.07;5.45;;;;;;;;;;5048406;28;20049;-60
2022/03/31 07:40:36;;;;;;;6.15;5.25;;;;;;;;;;5050316;28;20128;-60
2022/03/31 07:43:02;;;;;;;5.80;5.30;;;;;;;;;;5029956;28;20136;-60
2022/03/31 07:45:29;;;;;;;5.20;4.70;;;;;;;;;;5048323;28;20056;-60
2022/03/31 07:47:55;;;;;;;5.22;4.72;;;;;;;;;;5030043;28;20163;-60
2022/03/31 07:50:22;;;;;;;5.47;4.55;;;3.80;99.90;;;;;;5047711;28;20045;-60
2022/03/31 07:52:48;;;;;;;5.20;4.70;;;;;;;;;;5026957;28;20040;-60
2022/03/31 07:55:15;;;;;;;5.45;4.95;;;;;;;;;;5028164;28;20052;-60
2022/03/31 07:57:41;;;;;;;5.85;5.25;;;;;;;;;;5046358;28;20123;-61
2022/03/31 08:00:09;;;;;;;5.50;4.97;;;;;;;;;;5028110;28;20045;-61
2022/03/31 08:02:35;;;;;;;5.53;5.03;;;;;;;;;;5027984;28;20643;-61
2022/03/31 08:05:00;;;;;;;6.78;5.18;;;3.80;99.90;;;;;;5034501;28;20091;-61
2022/03/31 08:07:26;;;;;;;4.95;4.45;;;;;;;;;;5053184;28;20131;-61
2022/03/31 08:09:52;;;;;;;5.57;4.90;;;;;;;;;;5048551;28;20051;-62
2022/03/31 08:12:19;;;;;;;6.32;5.72;;;;;;;;;;5035281;28;20040;-61
2022/03/31 08:14:45;;;;;;;5.68;5.07;;;;;;;;;;5042913;28;20036;-60
2022/03/31 08:17:11;;;;;;;6.22;5.63;;;;;;;;;;5044728;28;20506;-61
2022/03/31 08:19:37;;;;;;;6.30;5.70;;;;;;;;;;5043499;28;20052;-60
2022/03/31 08:22:03;;;;;;;5.97;5.38;;;;;;;;;;5039380;28;20048;-60
2022/03/31 08:24:32;;;;;;;5.80;5.20;;;;;;;;;;5044201;28;20049;-59
2022/03/31 08:26:58;;;;;;;5.95;5.30;;;;;;;;;;5026656;28;20060;-61
2022/03/31 08:29:27;;;;;;;5.90;5.30;;;;;;;;;;5043159;28;20060;-60
2022/03/31 08:31:55;;;;;;;6.10;5.43;;;;;;;;;;5010082;28;20045;-61
2022/03/31 08:34:21;;;;;;;6.05;5.45;;;;;;;;;;5024382;28;20067;-58
2022/03/31 08:36:47;;;;;;;6.65;6.05;;;;;;;;;;5025709;28;20392;-60
2022/03/31 08:39:13;;;;;;;5.93;5.30;;;;;;;;;;5045883;28;20052;-60
2022/03/31 08:41:40;;;;;;;6.20;5.60;;;;;;;;;;5025699;28;20037;-60
2022/03/31 08:44:06;;;;;;;6.40;5.70;;;;;;;;;;5041680;28;20053;-61
2022/03/31 08:46:34;;;;;;;5.60;5.10;;;;;;;;;;5043666;28;20495;-61
2022/03/31 08:49:00;;;;;;;6.25;5.65;;;;;;;;;;5028170;28;20055;-59
2022/03/31 08:51:27;;;;;;;6.85;6.15;;;;;;;;;;5044521;28;20141;-60
2022/03/31 08:53:53;;;;;;;6.40;5.80;;;;;;;;;;5021262;28;20041;-60
2022/03/31 08:56:19;;;;;;;5.72;5.10;;;3.60;99.90;;;;;;5042201;28;20511;-62
2022/03/31 08:58:46;;;;;;;5.30;4.80;;;;;;;;;;5027839;28;20252;-61
2022/03/31 09:01:12;;;;;;;5.07;4.57;;;;;;;;;;5046610;28;20498;-61
2022/03/31 09:03:39;;;;;;;5.35;4.85;;;;;;;;;;5044905;28;20502;-59
2022/03/31 09:06:07;;;;;;;5.28;4.78;;;;;;;;;;5025155;28;20474;-60
2022/03/31 09:11:56;;;;;;;5.00;4.53;;;;;;;;;;5041911;28;20040;-59
2022/03/31 09:14:32;;;;;;;5.97;5.38;;;;;;;;;;5026867;28;20883;-61
2022/03/31 09:17:10;;;;;;;5.18;4.68;;;;;;;;;;5043978;28;20037;-60
2022/03/31 09:19:36;;;;;;;4.95;4.45;;;;;;;;;;5046049;28;20049;-59
2022/03/31 09:22:02;;;;;;;5.15;4.65;;;;;;;;;;5027557;28;20048;-61
2022/03/31 09:24:30;;;;;;;4.80;4.15;;;;;;;;;;5045569;28;20501;-63
2022/03/31 09:26:58;;;;;;;4.47;4.07;;;;;;;;;;5027462;28;20561;-62
2022/03/31 09:29:25;;;;;;;5.40;4.90;;;3.40;99.90;;;;;;5044682;28;20106;-62
2022/03/31 09:31:52;;;;;;;4.13;3.72;;;;;;;;;;5046506;28;20509;-62
2022/03/31 09:34:18;;;;;;;3.22;2.92;;;;;;;;;;5044739;28;20624;-60
2022/03/31 09:36:48;;;;;;;3.35;3.05;;;;;;;;;;5044747;28;20045;-61
2022/03/31 09:39:16;;;;;;;3.17;2.88;;;;;;;;;;5044818;28;20045;-60
2022/03/31 09:41:42;;;;;;;3.25;2.95;;;;;;;;;;5044907;28;20162;-59
2022/03/31 09:44:13;;;;;;;3.20;2.75;;;;;;;;;;5025883;28;20040;-60
2022/03/31 09:46:39;;;;;;;3.00;2.80;;;;;;;;;;5025680;28;20048;-61
2022/03/31 09:49:25;;;;;;;3.20;2.80;;;;;;;;;;5044960;28;20064;-61
2022/03/31 09:51:55;;;;;;;3.22;2.92;;;;;;;;;;5044525;28;20040;-61
2022/03/31 09:54:26;;;;;;;4.43;3.40;;;;;;;;;;5024727;28;20051;-60
2022/03/31 09:56:53;;;;;;;4.78;3.22;;;;;;;;;;5023307;28;20053;-60
2022/03/31 09:59:20;;;;;;;3.13;2.65;;;;;;;;;;5024035;28;20060;-61
2022/03/31 10:01:46;;;;;;;3.20;2.90;;;;;;;;;;5044002;28;20045;-61
2022/03/31 10:04:13;;;;;;;4.28;3.78;;;;;;;;;;5045037;28;20072;-60
2022/03/31 10:06:41;;;;;;;3.22;2.92;;;;;;;;;;5025353;28;20491;-60
2022/03/31 10:09:07;;;;;;;3.50;3.20;;;;;;;;;;5042901;28;20044;-60
2022/03/31 10:11:35;;;;;;;4.22;3.78;;;;;;;;;;5043811;28;20037;-60
2022/03/31 10:14:20;;;;;;;5.35;4.22;;;;;;;;;;5044610;28;20406;-60
2022/03/31 10:16:58;;;;;;;4.85;3.90;;;;;;;;;;5044709;28;20077;-60
2022/03/31 10:19:31;;;;;;;6.57;4.65;;;;;;;;;;5043914;28;20044;-60
2022/03/31 10:21:58;;;;;;;6.32;4.78;;;2.80;99.90;;;;;;5026213;28;20056;-60
2022/03/31 10:27:13;;;;;;;6.57;5.80;;;;;;;;;;5045162;28;20102;-60
2022/03/31 10:29:40;;;;;;;9.30;6.63;;;;;;;;;;5026527;28;20373;-59
2022/03/31 10:32:21;;;;;;;9.27;6.57;;;2.80;99.90;;;;;;5024184;28;20044;-60
2022/03/31 10:34:48;;;;;;;9.68;6.75;;;;;;;;;;5025302;28;20127;-60
2022/03/31 10:37:17;;;;;;;9.68;7.32;;;;;;;;;;5043441;28;20499;-60
2022/03/31 10:39:52;;;;;;;9.65;7.38;;;;;;;;;;5043166;28;20067;-60
2022/03/31 10:42:18;;;;;;;9.50;7.00;;;;;;;;;;5042919;28;20145;-58
2022/03/31 10:44:44;;;;;;;9.60;7.20;;;;;;;;;;5042168;28;20045;-60
2022/03/31 10:47:10;;;;;;;12.63;8.90;;;;;;;;;;5023750;28;20525;-61
2022/03/31 10:49:37;;;;;;;21.20;12.25;;;;;;;;;;5044021;28;20044;-61
2022/03/31 10:52:12;;;;;;;22.30;13.32;;;;;;;;;;5045949;28;20128;-61
2022/03/31 10:54:38;;;;;;;11.55;7.82;;;;;;;;;;5045142;28;20072;-61
2022/03/31 10:57:15;;;;;;;8.05;6.45;;;2.80;99.90;;;;;;5044390;28;20577;-61
2022/03/31 10:59:42;;;;;;;11.60;7.82;;;;;;;;;;5044366;28;20094;-64
2022/03/31 11:02:12;;;;;;;7.40;5.70;;;3.10;99.90;;;;;;5039301;28;20045;-63
2022/03/31 11:04:42;;;;;;;9.98;7.93;;;;;;;;;;5023080;28;20143;-64
2022/03/31 11:07:13;;;;;;;7.82;5.32;;;;;;;;;;5040180;28;20037;-62
2022/03/31 11:09:39;;;;;;;8.35;5.30;;;;;;;;;;5041774;28;20114;-62
2022/03/31 11:12:05;;;;;;;7.82;5.63;;;;;;;;;;5032809;28;20037;-62
2022/03/31 11:14:31;;;;;;;8.07;6.15;;;;;;;;;;5035991;28;20060;-62
2022/03/31 11:16:57;;;;;;;9.38;6.90;;;;;;;;;;5034836;28;20045;-62
2022/03/31 11:19:22;;;;;;;6.88;5.35;;;2.70;99.90;;;;;;5041291;28;20095;-61
2022/03/31 11:21:49;;;;;;;7.40;5.90;;;;;;;;;;5041797;28;20306;-60
2022/03/31 11:24:15;;;;;;;8.50;5.88;;;;;;;;;;5042098;28;20453;-62
2022/03/31 11:26:44;;;;;;;7.40;5.57;;;;;;;;;;5042462;28;20041;-61
2022/03/31 11:29:11;;;;;;;7.82;5.55;;;;;;;;;;5024876;28;20049;-61
2022/03/31 11:31:37;;;;;;;7.72;5.20;;;;;;;;;;5023251;28;20060;-61
2022/03/31 11:34:03;;;;;;;8.32;5.43;;;;;;;;;;5043236;28;20055;-60
2022/03/31 11:36:38;;;;;;;6.70;4.90;;;;;;;;;;5027381;28;20448;-60
2022/03/31 11:39:04;;;;;;;7.25;5.32;;;;;;;;;;5044634;28;20056;-61
2022/03/31 11:41:41;;;;;;;7.68;5.97;;;;;;;;;;5026492;28;20049;-62
2022/03/31 11:44:07;;;;;;;6.03;4.53;;;;;;;;;;5023594;28;20056;-62
2022/03/31 11:46:39;;;;;;;5.93;4.35;;;;;;;;;;5043631;28;20871;-61
2022/03/31 11:49:13;;;;;;;4.20;3.80;;;;;;;;;;5027237;28;20080;-62
2022/03/31 11:51:38;;;;;;;6.10;4.38;;;;;;;;;;5028450;28;20295;-62
2022/03/31 11:54:08;;;;;;;4.40;3.63;;;;;;;;;;5043263;28;20714;-62
2022/03/31 11:56:34;;;;;;;4.45;3.13;;;;;;;;;;5026876;28;20487;-62
2022/03/31 11:59:03;;;;;;;4.85;3.83;;;;;;;;;;5042582;28;21198;-61
2022/03/31 12:01:37;;;;;;;3.92;3.50;;;;;;;;;;5008898;28;20505;-60
2022/03/31 12:04:04;;;;;;;5.03;3.35;;;;;;;;;;5023095;28;20061;-62
2022/03/31 12:06:32;;;;;;;5.18;3.75;;;;;;;;;;5026389;28;20590;-61
2022/03/31 12:08:58;;;;;;;4.00;3.45;;;;;;;;;;5043627;28;20048;-61
2022/03/31 12:11:25;;;;;;;3.58;3.17;;;;;;;;;;5043671;28;22100;-61
2022/03/31 12:13:58;;;;;;;3.53;2.83;;;;;;;;;;5025988;28;20387;-62
2022/03/31 12:16:24;;;;;;;4.15;3.75;;;;;;;;;;5024444;28;20063;-63
2022/03/31 12:19:08;;;;;;;3.88;3.53;;;;;;;;;;5024547;28;20052;-62
2022/03/31 12:21:44;;;;;;;4.15;3.05;;;;;;;;;;5024287;28;20052;-62
2022/03/31 12:24:12;;;;;;;3.55;3.25;;;;;;;;;;5024473;28;20040;-62
2022/03/31 12:26:38;;;;;;;4.00;3.50;;;;;;;;;;5043254;28;20068;-60
2022/03/31 12:29:15;;;;;;;4.32;3.78;;;;;;;;;;5042286;28;20850;-61
2022/03/31 12:31:41;;;;;;;3.97;3.40;;;;;;;;;;5043970;28;20044;-61
2022/03/31 12:34:12;;;;;;;4.65;4.22;;;;;;;;;;5045196;28;20044;-61
2022/03/31 12:36:37;;;;;;;4.28;3.33;;;;;;;;;;5045326;28;20518;-61
2022/03/31 12:39:05;;;;;;;4.47;4.05;;;;;;;;;;5045647;28;20048;-61
2022/03/31 12:41:36;;;;;;;4.80;4.30;;;;;;;;;;5044416;28;20044;-61
2022/03/31 12:44:05;;;;;;;5.07;4.20;;;;;;;;;;5043725;28;20076;-62
2022/03/31 12:46:32;;;;;;;5.57;4.18;;;;;;;;;;5024006;28;20976;-60
2022/03/31 12:49:09;;;;;;;5.03;4.07;;;;;;;;;;5042307;28;20044;-62
2022/03/31 12:51:49;;;;;;;4.28;3.83;;;;;;;;;;5027655;28;20140;-60
2022/03/31 12:54:32;;;;;;;5.53;4.18;;;;;;;;;;5027583;28;20067;-61
2022/03/31 12:57:01;;;;;;;5.20;4.70;;;;;;;;;;5045063;28;20131;-63
2022/03/31 12:59:30;;;;;;;5.30;4.43;;;;;;;;;;5028480;28;20091;-62
2022/03/31 13:02:00;;;;;;;4.70;4.20;;;;;;;;;;5030638;28;20382;-62
2022/03/31 13:04:26;;;;;;;4.57;3.90;;;;;;;;;;5046554;28;20056;-61
2022/03/31 13:06:52;;;;;;;5.90;4.72;;;;;;;;;;5047079;28;20046;-60
2022/03/31 13:09:19;;;;;;;4.28;3.85;;;;;;;;;;5028724;28;20218;-61
2022/03/31 13:11:45;;;;;;;5.22;4.47;;;;;;;;;;5047695;28;20696;-61
2022/03/31 13:14:11;;;;;;;4.85;4.15;;;;;;;;;;5027485;28;20045;-62
2022/03/31 13:16:37;;;;;;;5.60;4.75;;;;;;;;;;5025325;28;21374;-60
2022/03/31 13:19:04;;;;;;;5.95;4.90;;;;;;;;;;5043875;28;20375;-61
2022/03/31 13:21:30;;;;;;;6.25;4.50;;;;;;;;;;5026527;28;20049;-60
2022/03/31 13:23:56;;;;;;;5.68;5.05;;;;;;;;;;5046531;28;20048;-61
2022/03/31 13:26:22;;;;;;;5.72;4.63;;;;;;;;;;5026194;28;20044;-61
2022/03/31 13:28:48;;;;;;;6.63;5.22;;;;;;;;;;5044403;28;20501;-62
2022/03/31 13:31:14;;;;;;;6.15;4.57;;;;;;;;;;5047899;28;20089;-61
2022/03/31 13:33:40;;;;;;;5.93;5.32;;;;;;;;;;5026573;28;20110;-62
2022/03/31 13:36:06;;;;;;;5.50;5.00;;;;;;;;;;5047610;28;20045;-62
2022/03/31 13:38:34;;;;;;;7.35;6.05;;;;;;;;;;5045869;28;20106;-60
2022/03/31 13:41:00;;;;;;;7.25;6.20;;;;;;;;;;5047706;28;20059;-60
2022/03/31 13:43:27;;;;;;;7.53;5.85;;;;;;;;;;5030009;28;20703;-60
2022/03/31 13:45:53;;;;;;;9.00;6.40;;;;;;;;;;5049629;28;20033;-62
2022/03/31 13:48:19;;;;;;;8.85;7.15;;;;;;;;;;5048145;28;20063;-61
2022/03/31 13:50:45;;;;;;;8.40;6.63;;;;;;;;;;5046293;28;20172;-60
2022/03/31 13:55:56;;;;;;;10.38;7.50;;;;;;;;;;5027686;28;20091;-62
2022/03/31 14:01:07;;;;;;;10.80;8.82;;;;;;;;;;5044758;28;20049;-61
2022/03/31 14:03:34;;;;;;;11.68;8.93;;;1.70;99.90;;;;;;5048873;28;20121;-62
2022/03/31 14:06:00;;;;;;;12.15;8.95;;;;;;;;;;5055864;28;20572;-63
2022/03/31 14:08:26;;;;;;;13.00;10.52;;;;;;;;;;5036438;28;20052;-63
2022/03/31 14:10:52;;;;;;;13.40;9.98;;;;;;;;;;5036648;28;20136;-63
2022/03/31 14:13:18;;;;;;;13.80;9.63;;;;;;;;;;5054006;28;20052;-63
2022/03/31 14:15:44;;;;;;;14.48;11.10;;;;;;;;;;5049465;28;21060;-63
2022/03/31 14:18:10;;;;;;;14.48;11.88;;;;;;;;;;5027216;28;20049;-62
2022/03/31 14:20:36;;;;;;;16.33;11.07;;;;;;;;;;5025965;28;20057;-61
2022/03/31 14:23:03;;;;;;;18.58;12.32;;;;;;;;;;5045933;28;20181;-60
2022/03/31 14:25:29;;;;;;;15.52;11.10;;;;;;;;;;5045116;28;20040;-60
2022/03/31 14:27:55;;;;;;;18.10;12.52;;;;;;;;;;5028691;28;20083;-60
2022/03/31 14:30:22;;;;;;;15.88;11.77;;;;;;;;;;5031545;28;20159;-62
2022/03/31 14:32:47;;;;;;;14.90;11.88;;;;;;;;;;5030451;28;20095;-60
2022/03/31 14:35:13;;;;;;;16.60;11.80;;;1.90;99.90;;;;;;5045201;28;20560;-60
2022/03/31 14:37:39;;;;;;;16.55;12.05;;;;;;;;;;5026448;28;20052;-61